createdAt,value
2018-12-16T00:01:10.555Z,14.53
2018-12-16T00:04:13.825Z,15.90
2018-12-16T00:07:16.978Z,14.67
2018-12-16T00:10:20.184Z,15.63
2018-12-16T00:13:23.411Z,19.13
2018-12-16T00:16:26.723Z,16.60
2018-12-16T00:19:29.953Z,14.87
2018-12-16T00:22:33.391Z,16.03
2018-12-16T00:25:36.567Z,16.63
2018-12-16T00:28:40.458Z,17.77
2018-12-16T00:31:43.640Z,15.87
2018-12-16T00:34:46.801Z,16.77
2018-12-16T00:37:50.027Z,17.13
2018-12-16T00:40:53.227Z,17.03
2018-12-16T00:43:56.429Z,17.50
2018-12-16T00:46:59.618Z,18.60
2018-12-16T00:50:04.510Z,18.37
2018-12-16T00:53:08.206Z,17.30
2018-12-16T00:56:11.462Z,16.10
2018-12-16T00:59:14.653Z,15.07
2018-12-16T01:02:23.295Z,18.00
2018-12-16T01:05:26.646Z,17.30
2018-12-16T01:08:29.856Z,17.53
2018-12-16T01:11:33.074Z,18.83
2018-12-16T01:14:36.344Z,17.73
2018-12-16T01:17:39.859Z,17.30
2018-12-16T01:20:43.157Z,19.30
2018-12-16T01:23:46.322Z,16.23
2018-12-16T01:26:49.502Z,19.10
2018-12-16T01:29:52.764Z,15.03
2018-12-16T01:32:55.938Z,19.10
2018-12-16T01:35:59.096Z,17.53
2018-12-16T01:39:02.359Z,18.20
2018-12-16T01:42:05.971Z,17.40
2018-12-16T01:45:09.309Z,15.70
2018-12-16T01:48:12.480Z,15.50
2018-12-16T01:51:15.642Z,15.43
2018-12-16T01:54:18.821Z,18.33
2018-12-16T01:57:22.106Z,16.47
2018-12-16T02:00:25.402Z,18.03
2018-12-16T02:03:28.629Z,17.87
2018-12-16T02:06:31.834Z,16.07
2018-12-16T02:09:35.213Z,16.73
2018-12-16T02:12:38.379Z,18.53
2018-12-16T02:15:41.702Z,16.30
2018-12-16T02:18:45.011Z,18.40
2018-12-16T02:21:48.362Z,20.67
2018-12-16T02:24:51.520Z,17.23
2018-12-16T02:27:54.790Z,20.57
2018-12-16T02:30:57.994Z,22.27
2018-12-16T02:34:01.191Z,21.47
2018-12-16T02:37:04.338Z,23.67
2018-12-16T02:40:07.594Z,21.50
2018-12-16T02:43:11.628Z,22.70
2018-12-16T02:46:15.164Z,24.93
2018-12-16T02:49:18.627Z,26.03
2018-12-16T02:52:22.087Z,22.83
2018-12-16T02:55:25.559Z,22.00
2018-12-16T02:58:30.624Z,24.50
2018-12-16T03:01:33.859Z,23.10
2018-12-16T03:04:37.343Z,29.53
2018-12-16T03:07:41.197Z,27.70
2018-12-16T03:10:44.563Z,25.43
2018-12-16T03:13:47.953Z,24.40
2018-12-16T03:16:51.506Z,27.33
2018-12-16T03:19:54.899Z,29.00
2018-12-16T03:22:58.353Z,25.43
2018-12-16T03:26:02.261Z,27.67
2018-12-16T03:29:06.255Z,28.97
2018-12-16T03:32:09.739Z,26.07
2018-12-16T03:35:13.409Z,29.23
2018-12-16T03:38:17.337Z,26.77
2018-12-16T03:41:20.668Z,28.73
2018-12-16T03:44:23.845Z,30.33
2018-12-16T03:47:27.160Z,25.80
2018-12-16T03:50:31.785Z,25.10
2018-12-16T03:53:34.967Z,25.67
2018-12-16T03:56:38.172Z,26.57
2018-12-16T03:59:41.366Z,28.07
2018-12-16T04:02:44.620Z,26.13
2018-12-16T04:05:47.790Z,27.73
2018-12-16T04:08:51.175Z,27.00
2018-12-16T04:11:54.344Z,28.77
2018-12-16T04:14:57.542Z,26.17
2018-12-16T04:18:02.051Z,28.80
2018-12-16T04:21:05.298Z,28.43
2018-12-16T04:24:09.146Z,25.70
2018-12-16T04:27:12.354Z,26.67
2018-12-16T04:30:15.642Z,24.27
2018-12-16T04:33:18.828Z,29.63
2018-12-16T04:36:22.043Z,26.73
2018-12-16T04:39:25.242Z,29.07
2018-12-16T04:42:28.633Z,27.43
2018-12-16T04:45:33.189Z,26.73
2018-12-16T04:48:36.384Z,28.40
2018-12-16T04:51:39.546Z,30.47
2018-12-16T04:54:42.701Z,28.30
2018-12-16T04:57:46.776Z,30.37
2018-12-16T05:00:50.048Z,31.37
2018-12-16T05:03:53.406Z,32.17
2018-12-16T05:06:56.660Z,27.53
2018-12-16T05:10:10.072Z,26.33
2018-12-16T05:13:13.230Z,27.17
2018-12-16T05:16:16.386Z,26.00
2018-12-16T05:19:20.805Z,29.23
2018-12-16T05:22:24.059Z,29.50
2018-12-16T05:25:27.293Z,28.00
2018-12-16T05:28:30.649Z,27.37
2018-12-16T05:31:33.899Z,28.33
2018-12-16T05:34:37.409Z,27.43
2018-12-16T05:37:40.589Z,27.03
2018-12-16T05:40:43.777Z,25.30
2018-12-16T05:43:47.075Z,23.97
2018-12-16T05:46:50.229Z,26.57
2018-12-16T05:49:53.723Z,29.77
2018-12-16T05:52:56.876Z,29.63
2018-12-16T05:56:00.072Z,27.57
2018-12-16T05:59:04.824Z,29.93
2018-12-16T06:02:08.106Z,27.40
2018-12-16T06:05:11.370Z,29.50
2018-12-16T06:08:14.878Z,30.47
2018-12-16T06:11:18.023Z,31.13
2018-12-16T06:14:21.269Z,29.77
2018-12-16T06:17:24.448Z,31.70
2018-12-16T06:20:27.862Z,30.00
2018-12-16T06:23:31.053Z,31.67
2018-12-16T06:26:34.375Z,33.00
2018-12-16T06:29:38.415Z,30.27
2018-12-16T06:32:41.573Z,30.73
2018-12-16T06:35:44.758Z,31.93
2018-12-16T06:38:47.957Z,31.30
2018-12-16T06:41:51.359Z,29.73
2018-12-16T06:44:54.549Z,32.80
2018-12-16T06:47:57.777Z,35.20
2018-12-16T06:51:01.407Z,32.17
2018-12-16T06:54:04.645Z,38.47
2018-12-16T06:57:07.870Z,36.50
2018-12-16T07:00:11.363Z,33.97
2018-12-16T07:03:14.567Z,37.17
2018-12-16T07:06:17.741Z,34.67
2018-12-16T07:09:21.199Z,39.27
2018-12-16T07:12:24.418Z,31.97
2018-12-16T07:15:28.943Z,36.00
2018-12-16T07:18:32.298Z,36.67
2018-12-16T07:21:35.845Z,37.13
2018-12-16T07:24:39.255Z,40.60
2018-12-16T07:27:42.544Z,38.70
2018-12-16T07:30:45.734Z,40.30
2018-12-16T07:33:49.013Z,41.03
2018-12-16T07:36:52.362Z,39.57
2018-12-16T07:39:55.753Z,37.37
2018-12-16T07:42:59.074Z,36.87
2018-12-16T07:46:02.849Z,37.80
2018-12-16T07:49:06.510Z,35.07
2018-12-16T07:52:12.595Z,36.93
2018-12-16T07:55:16.305Z,34.23
2018-12-16T07:58:19.513Z,37.17
2018-12-16T08:01:22.815Z,36.83
2018-12-16T08:04:26.144Z,34.87
2018-12-16T08:07:29.410Z,35.33
2018-12-16T08:10:32.716Z,34.83
2018-12-16T08:13:35.933Z,34.87
2018-12-16T08:16:39.112Z,30.03
2018-12-16T08:19:42.340Z,32.67
2018-12-16T08:22:45.575Z,32.13
2018-12-16T08:25:48.786Z,36.20
2018-12-16T08:28:52.474Z,31.30
2018-12-16T08:31:55.816Z,33.37
2018-12-16T08:34:59.086Z,30.30
2018-12-16T08:38:02.307Z,30.03
2018-12-16T08:41:05.501Z,31.40
2018-12-16T08:44:08.721Z,35.80
2018-12-16T08:47:11.961Z,34.67
2018-12-16T08:50:16.628Z,30.33
2018-12-16T08:53:20.564Z,31.13
2018-12-16T08:56:23.842Z,31.10
2018-12-16T08:59:27.075Z,35.70
2018-12-16T09:02:30.236Z,32.47
2018-12-16T09:05:33.707Z,34.83
2018-12-16T09:08:36.990Z,31.07
2018-12-16T09:11:40.188Z,30.77
2018-12-16T09:14:43.369Z,31.07
2018-12-16T09:17:46.619Z,31.50
2018-12-16T09:20:49.960Z,33.57
2018-12-16T09:23:53.165Z,33.90
2018-12-16T09:26:56.325Z,35.43
2018-12-16T09:29:59.598Z,32.77
2018-12-16T09:33:02.875Z,32.80
2018-12-16T09:36:06.233Z,33.90
2018-12-16T09:39:09.394Z,35.60
2018-12-16T09:42:12.781Z,34.03
2018-12-16T09:45:16.154Z,32.53
2018-12-16T09:48:19.316Z,33.37
2018-12-16T09:51:25.086Z,31.00
2018-12-16T09:54:28.389Z,32.50
2018-12-16T09:57:31.711Z,34.93
2018-12-16T10:00:34.971Z,37.67
2018-12-16T10:03:38.193Z,35.10
2018-12-16T10:06:41.576Z,34.80
2018-12-16T10:09:49.517Z,31.90
2018-12-16T10:12:52.693Z,34.47
2018-12-16T10:16:00.608Z,34.20
2018-12-16T10:19:04.138Z,33.23
2018-12-16T10:22:13.345Z,35.07
2018-12-16T10:25:23.392Z,36.87
2018-12-16T10:28:31.700Z,38.40
2018-12-16T10:31:34.884Z,38.00
2018-12-16T10:34:39.691Z,36.00
2018-12-16T10:37:43.273Z,39.23
2018-12-16T10:40:47.753Z,37.53
2018-12-16T10:43:51.007Z,41.83
2018-12-16T10:46:55.886Z,41.30
2018-12-16T10:49:59.051Z,44.33
2018-12-16T10:53:02.229Z,44.93
2018-12-16T10:56:05.430Z,43.67
2018-12-16T10:59:08.632Z,40.73
2018-12-16T11:02:11.839Z,42.87
2018-12-16T11:05:15.617Z,38.63
2018-12-16T11:08:18.955Z,36.63
2018-12-16T11:11:22.305Z,34.80
2018-12-16T11:14:25.820Z,35.73
2018-12-16T11:17:29.303Z,37.03
2018-12-16T11:20:32.594Z,36.47
2018-12-16T11:23:35.850Z,34.73
2018-12-16T11:26:39.271Z,35.23
2018-12-16T11:29:42.643Z,39.30
2018-12-16T11:32:46.545Z,36.07
2018-12-16T11:35:50.340Z,38.07
2018-12-16T11:38:53.905Z,36.37
2018-12-16T11:41:57.183Z,38.23
2018-12-16T11:45:00.796Z,34.90
2018-12-16T11:48:04.380Z,35.03
2018-12-16T11:51:07.723Z,35.73
2018-12-16T11:54:10.906Z,30.00
2018-12-16T11:57:14.278Z,25.90
2018-12-16T12:00:17.474Z,31.67
2018-12-16T12:03:20.665Z,26.80
2018-12-16T12:06:23.852Z,24.93
2018-12-16T12:09:27.032Z,28.10
2018-12-16T12:12:30.220Z,25.87
2018-12-16T12:15:33.486Z,26.47
2018-12-16T12:18:36.729Z,24.03
2018-12-16T12:21:39.909Z,25.77
2018-12-16T12:24:43.118Z,27.03
2018-12-16T12:27:47.512Z,29.47
2018-12-16T12:30:51.020Z,25.93
2018-12-16T12:33:54.239Z,29.03
2018-12-16T12:36:57.537Z,28.27
2018-12-16T12:40:00.718Z,25.63
2018-12-16T12:43:04.061Z,31.43
2018-12-16T12:46:07.231Z,110.97
2018-12-16T12:49:10.400Z,28.20
2018-12-16T12:52:13.601Z,27.60
2018-12-16T12:55:16.811Z,24.73
2018-12-16T12:58:20.024Z,28.90
2018-12-16T13:01:23.292Z,26.37
2018-12-16T13:04:26.503Z,25.37
2018-12-16T13:07:30.639Z,27.17
2018-12-16T13:10:33.892Z,25.77
2018-12-16T13:13:37.085Z,28.13
2018-12-16T13:16:40.514Z,26.10
2018-12-16T13:19:43.713Z,27.60
2018-12-16T13:22:46.923Z,24.43
2018-12-16T13:26:01.376Z,27.77
2018-12-16T13:29:04.643Z,27.33
2018-12-16T13:32:08.917Z,29.23
2018-12-16T13:35:12.786Z,26.17
2018-12-16T13:38:16.513Z,25.20
2018-12-16T13:41:19.826Z,26.07
2018-12-16T13:44:23.060Z,28.10
2018-12-16T13:47:28.102Z,26.60
2018-12-16T13:50:32.330Z,28.07
2018-12-16T13:53:36.510Z,25.30
2018-12-16T13:56:39.757Z,33.90
2018-12-16T13:59:42.974Z,38.50
2018-12-16T14:02:46.150Z,31.90
2018-12-16T14:05:49.439Z,25.97
2018-12-16T14:08:52.646Z,27.33
2018-12-16T14:11:56.161Z,26.80
2018-12-16T14:14:59.418Z,26.97
2018-12-16T14:18:02.623Z,30.63
2018-12-16T14:21:05.810Z,27.27
2018-12-16T14:24:09.128Z,26.90
2018-12-16T14:27:12.514Z,28.27
2018-12-16T14:30:15.797Z,25.27
2018-12-16T14:33:19.060Z,31.70
2018-12-16T14:36:22.322Z,25.97
2018-12-16T14:39:26.216Z,28.40
2018-12-16T14:42:29.653Z,36.87
2018-12-16T14:45:32.874Z,32.43
2018-12-16T14:48:36.086Z,29.57
2018-12-16T14:51:39.424Z,27.57
2018-12-16T14:54:43.223Z,28.60
2018-12-16T14:57:46.440Z,30.13
2018-12-16T15:00:49.724Z,28.23
2018-12-16T15:03:52.899Z,28.57
2018-12-16T15:06:56.095Z,30.00
2018-12-16T15:10:00.858Z,28.13
2018-12-16T15:13:04.230Z,45.97
2018-12-16T15:16:10.168Z,56.50
2018-12-16T15:19:14.330Z,43.77
2018-12-16T15:22:17.516Z,34.17
2018-12-16T15:25:20.721Z,32.83
2018-12-16T15:28:23.905Z,30.77
2018-12-16T15:31:27.153Z,27.23
2018-12-16T15:34:30.420Z,30.90
2018-12-16T15:37:33.686Z,30.47
2018-12-16T15:40:37.488Z,30.47
2018-12-16T15:43:41.579Z,37.60
2018-12-16T15:46:45.437Z,34.97
2018-12-16T15:49:48.699Z,32.63
2018-12-16T15:52:51.888Z,33.83
2018-12-16T15:55:55.099Z,32.30
2018-12-16T15:58:59.647Z,31.50
2018-12-16T16:02:03.035Z,34.87
2018-12-16T16:05:06.536Z,33.90
2018-12-16T16:08:16.252Z,33.97
2018-12-16T16:11:15.580Z,34.40
2018-12-16T16:14:18.804Z,33.07
2018-12-16T16:17:22.090Z,31.50
2018-12-16T16:20:25.367Z,33.90
2018-12-16T16:23:28.777Z,33.67
2018-12-16T16:26:31.959Z,38.07
2018-12-16T16:29:35.252Z,35.40
2018-12-16T16:32:38.543Z,33.07
2018-12-16T16:35:41.817Z,33.70
2018-12-16T16:38:45.218Z,36.60
2018-12-16T16:41:51.552Z,35.47
2018-12-16T16:44:54.804Z,35.60
2018-12-16T16:48:00.161Z,32.27
2018-12-16T16:51:03.634Z,34.80
2018-12-16T16:54:06.978Z,34.93
2018-12-16T16:57:10.169Z,33.83
2018-12-16T17:00:14.028Z,36.17
2018-12-16T17:03:19.110Z,34.80
2018-12-16T17:06:23.876Z,33.50
2018-12-16T17:09:27.135Z,31.23
2018-12-16T17:12:30.345Z,32.37
2018-12-16T17:15:34.109Z,34.63
2018-12-16T17:18:38.182Z,35.97
2018-12-16T17:21:42.355Z,34.17
2018-12-16T17:24:45.674Z,33.50
2018-12-16T17:27:48.948Z,36.57
2018-12-16T17:30:52.346Z,31.07
2018-12-16T17:33:55.547Z,34.43
2018-12-16T17:36:58.943Z,35.60
2018-12-16T17:40:02.439Z,32.23
2018-12-16T17:43:05.746Z,34.60
2018-12-16T17:46:08.938Z,33.57
2018-12-16T17:49:12.156Z,33.17
2018-12-16T17:52:15.352Z,33.40
2018-12-16T17:55:18.634Z,34.27
2018-12-16T17:58:22.067Z,37.73
2018-12-16T18:01:25.458Z,33.00
2018-12-16T18:04:28.741Z,35.17
2018-12-16T18:07:32.061Z,34.30
2018-12-16T18:10:35.470Z,35.43
2018-12-16T18:13:39.870Z,33.10
2018-12-16T18:16:43.070Z,32.80
2018-12-16T18:19:46.352Z,45.17
2018-12-16T18:22:49.650Z,34.17
2018-12-16T18:25:52.983Z,30.87
2018-12-16T18:28:56.247Z,32.07
2018-12-16T18:31:59.440Z,34.57
2018-12-16T18:35:02.840Z,33.80
2018-12-16T18:38:06.238Z,32.83
2018-12-16T18:41:09.659Z,33.23
2018-12-16T18:44:13.084Z,34.93
2018-12-16T18:47:16.316Z,33.37
2018-12-16T18:50:20.977Z,32.17
2018-12-16T18:53:24.456Z,34.60
2018-12-16T18:56:27.791Z,36.23
2018-12-16T18:59:31.148Z,32.77
2018-12-16T19:02:34.516Z,33.30
2018-12-16T19:05:37.762Z,34.77
2018-12-16T19:08:41.031Z,34.73
2018-12-16T19:11:44.370Z,36.43
2018-12-16T19:14:47.666Z,36.03
2018-12-16T19:17:51.066Z,34.27
2018-12-16T19:20:54.486Z,34.57
2018-12-16T19:23:57.795Z,37.50
2018-12-16T19:27:01.202Z,32.27
2018-12-16T19:30:05.025Z,32.83
2018-12-16T19:33:08.382Z,34.40
2018-12-16T19:36:11.875Z,35.07
2018-12-16T19:39:15.322Z,38.07
2018-12-16T19:42:19.836Z,35.67
2018-12-16T19:45:24.145Z,34.60
2018-12-16T19:48:28.978Z,37.27
2018-12-16T19:51:33.785Z,37.60
2018-12-16T19:54:37.280Z,40.30
2018-12-16T19:57:40.619Z,35.00
2018-12-16T20:00:44.025Z,39.00
2018-12-16T20:03:52.868Z,43.33
2018-12-16T20:06:56.332Z,41.77
2018-12-16T20:09:59.837Z,47.43
2018-12-16T20:13:03.271Z,44.27
2018-12-16T20:16:06.677Z,41.83
2018-12-16T20:19:10.201Z,43.67
2018-12-16T20:22:15.577Z,43.60
2018-12-16T20:25:19.372Z,48.03
2018-12-16T20:28:22.874Z,45.17
2018-12-16T20:31:26.526Z,40.23
2018-12-16T20:34:31.533Z,41.20
2018-12-16T20:37:36.350Z,45.90
2018-12-16T20:40:39.915Z,43.17
2018-12-16T20:43:43.412Z,48.50
2018-12-16T20:46:46.761Z,45.00
2018-12-16T20:49:50.438Z,46.43
2018-12-16T20:52:53.806Z,52.17
2018-12-16T20:55:57.348Z,45.67
2018-12-16T20:59:00.927Z,46.20
2018-12-16T21:02:04.418Z,51.73
2018-12-16T21:05:07.833Z,46.93
2018-12-16T21:08:11.059Z,47.43
2018-12-16T21:11:19.700Z,49.70
2018-12-16T21:14:29.570Z,50.43
2018-12-16T21:17:38.777Z,47.63
2018-12-16T21:20:42.164Z,48.77
2018-12-16T21:23:45.436Z,49.37
2018-12-16T21:26:51.986Z,50.73
2018-12-16T21:29:56.009Z,51.03
2018-12-16T21:33:00.617Z,43.63
2018-12-16T21:36:04.052Z,51.80
2018-12-16T21:39:08.072Z,48.53
2018-12-16T21:42:13.185Z,55.67
2018-12-16T21:45:16.390Z,51.23
2018-12-16T21:48:19.574Z,45.47
2018-12-16T21:51:22.787Z,48.77
2018-12-16T21:54:26.025Z,51.97
2018-12-16T21:57:33.100Z,53.07
2018-12-16T22:00:35.326Z,47.63
2018-12-16T22:03:38.542Z,47.37
2018-12-16T22:06:41.733Z,48.67
2018-12-16T22:09:47.654Z,48.63
2018-12-16T22:12:50.932Z,48.37
2018-12-16T22:15:54.276Z,51.87
2018-12-16T22:18:57.520Z,49.17
2018-12-16T22:22:00.824Z,50.53
2018-12-16T22:25:04.168Z,56.30
2018-12-16T22:28:07.456Z,48.33
2018-12-16T22:31:10.668Z,52.67
2018-12-16T22:34:13.860Z,51.67
2018-12-16T22:37:17.019Z,50.30
2018-12-16T22:40:20.708Z,52.87
2018-12-16T22:43:24.076Z,51.13
2018-12-16T22:46:28.074Z,51.27
2018-12-16T22:49:31.331Z,49.07
2018-12-16T22:52:34.754Z,52.50
2018-12-16T22:55:38.217Z,51.83
2018-12-16T22:58:41.467Z,49.97
2018-12-16T23:01:45.753Z,54.03
2018-12-16T23:04:48.975Z,53.20
2018-12-16T23:07:52.158Z,53.97
2018-12-16T23:10:55.349Z,55.17
2018-12-16T23:13:58.529Z,54.80
2018-12-16T23:17:01.849Z,52.90
2018-12-16T23:20:11.154Z,53.07
2018-12-16T23:23:15.393Z,53.90
2018-12-16T23:26:19.823Z,52.47
2018-12-16T23:29:23.049Z,49.73
2018-12-16T23:32:27.453Z,53.53
2018-12-16T23:35:30.737Z,56.30
2018-12-16T23:38:33.910Z,51.73
2018-12-16T23:41:37.395Z,51.30
2018-12-16T23:44:41.622Z,57.10
2018-12-16T23:47:45.400Z,52.23
2018-12-16T23:50:48.651Z,51.30
2018-12-16T23:53:52.676Z,58.77
2018-12-16T23:56:56.078Z,59.03
2018-12-16T23:59:59.645Z,56.80
